createdAt,value
2022-09-23T00:02:06.443Z,15.30
2022-09-23T00:04:36.818Z,13.50
2022-09-23T00:07:07.118Z,15.25
2022-09-23T00:09:37.199Z,15.72
2022-09-23T00:12:09.227Z,15.20
2022-09-23T00:14:40.018Z,15.00
2022-09-23T00:17:10.246Z,17.92
2022-09-23T00:19:41.628Z,13.28
2022-09-23T00:22:12.027Z,16.30
2022-09-23T00:24:42.121Z,14.00
2022-09-23T00:27:12.478Z,15.45
2022-09-23T00:29:42.683Z,14.25
2022-09-23T00:32:12.784Z,11.48
2022-09-23T00:34:43.119Z,13.03
2022-09-23T00:37:13.127Z,13.65
2022-09-23T00:39:43.444Z,14.05
2022-09-23T00:42:14.781Z,15.95
2022-09-23T00:44:46.023Z,11.38
2022-09-23T00:47:17.395Z,15.50
2022-09-23T00:49:49.032Z,8.05
2022-09-23T00:52:20.583Z,9.88
2022-09-23T00:54:51.037Z,4.87
2022-09-23T00:57:21.675Z,5.72
2022-09-23T00:59:52.913Z,8.90
2022-09-23T01:02:23.358Z,9.53
2022-09-23T01:04:53.776Z,6.40
2022-09-23T01:07:26.857Z,10.58
2022-09-23T01:09:57.004Z,5.37
2022-09-23T01:12:26.914Z,7.15
2022-09-23T01:14:58.458Z,3.58
2022-09-23T01:17:29.858Z,2.50
2022-09-23T01:20:01.304Z,5.78
2022-09-23T01:22:32.576Z,5.22
2022-09-23T01:25:03.824Z,4.62
2022-09-23T01:27:35.597Z,3.83
2022-09-23T01:30:07.000Z,3.58
2022-09-23T01:32:42.216Z,3.37
2022-09-23T01:35:13.497Z,3.80
2022-09-23T01:37:45.763Z,3.83
2022-09-23T01:40:17.218Z,6.08
2022-09-23T01:42:51.815Z,4.20
2022-09-23T01:45:23.328Z,3.75
2022-09-23T01:48:00.353Z,4.72
2022-09-23T01:53:02.504Z,4.65
2022-09-23T01:55:33.855Z,4.08
2022-09-23T01:58:05.153Z,2.65
2022-09-23T02:00:37.804Z,2.75
2022-09-23T02:03:09.173Z,3.12
2022-09-23T02:05:40.802Z,4.37
2022-09-23T02:08:12.029Z,4.47
2022-09-23T02:10:44.636Z,4.72
2022-09-23T02:13:16.847Z,4.17
2022-09-23T02:15:48.238Z,13.40
2022-09-23T02:18:19.472Z,5.45
2022-09-23T02:20:51.099Z,2.95
2022-09-23T02:23:22.347Z,4.53
2022-09-23T02:25:54.234Z,3.95
2022-09-23T02:28:25.518Z,6.80
2022-09-23T02:30:57.280Z,5.85
2022-09-23T02:33:28.550Z,5.35
2022-09-23T02:36:00.052Z,5.08
2022-09-23T02:38:31.315Z,4.15
2022-09-23T02:41:02.781Z,5.12
2022-09-23T02:43:34.003Z,8.08
2022-09-23T02:46:05.397Z,7.47
2022-09-23T02:48:36.879Z,5.25
2022-09-23T02:51:07.123Z,5.97
2022-09-23T02:53:37.732Z,5.10
2022-09-23T02:56:09.078Z,5.53
2022-09-23T02:58:39.145Z,6.83
2022-09-23T03:01:10.653Z,5.33
2022-09-23T03:03:42.001Z,6.22
2022-09-23T03:06:13.407Z,5.87
2022-09-23T03:08:45.289Z,7.28
2022-09-23T03:11:15.472Z,5.37
2022-09-23T03:13:47.907Z,4.45
2022-09-23T03:16:19.366Z,6.20
2022-09-23T03:18:51.370Z,7.08
2022-09-23T03:21:21.066Z,5.15
2022-09-23T03:23:51.729Z,9.75
2022-09-23T03:26:23.206Z,6.75
2022-09-23T03:28:54.083Z,5.65
2022-09-23T03:31:24.299Z,5.60
2022-09-23T03:33:55.733Z,5.67
2022-09-23T03:36:28.355Z,6.60
2022-09-23T03:38:59.636Z,6.33
2022-09-23T03:41:31.111Z,6.58
2022-09-23T03:44:02.098Z,6.70
2022-09-23T03:46:33.758Z,7.40
2022-09-23T03:49:05.359Z,7.85
2022-09-23T03:51:35.504Z,5.90
2022-09-23T03:54:05.649Z,9.55
2022-09-23T03:56:35.922Z,7.30
2022-09-23T03:59:05.914Z,6.47
2022-09-23T04:01:37.127Z,8.43
2022-09-23T04:04:07.357Z,5.58
2022-09-23T04:06:37.454Z,6.28
2022-09-23T04:09:07.560Z,6.17
2022-09-23T04:11:38.483Z,6.10
2022-09-23T04:14:08.701Z,4.95
2022-09-23T04:16:39.227Z,6.12
2022-09-23T04:19:11.590Z,8.53
2022-09-23T04:21:44.894Z,5.12
2022-09-23T04:24:15.881Z,6.72
2022-09-23T04:26:46.265Z,6.50
2022-09-23T04:29:16.470Z,5.33
2022-09-23T04:31:46.568Z,6.10
2022-09-23T04:34:18.364Z,6.20
2022-09-23T04:36:49.004Z,6.03
2022-09-23T04:39:19.633Z,5.62
2022-09-23T04:41:49.853Z,5.80
2022-09-23T04:44:21.415Z,8.23
2022-09-23T04:46:52.907Z,7.10
2022-09-23T04:49:23.157Z,7.50
2022-09-23T04:51:53.302Z,4.80
2022-09-23T04:54:23.424Z,5.62
2022-09-23T04:56:53.678Z,4.50
2022-09-23T04:59:23.761Z,5.75
2022-09-23T05:01:55.335Z,6.05
2022-09-23T05:04:25.844Z,6.70
2022-09-23T05:06:57.478Z,5.80
2022-09-23T05:09:27.400Z,6.67
2022-09-23T05:11:57.639Z,5.42
2022-09-23T05:14:27.886Z,5.62
2022-09-23T05:16:58.185Z,6.10
2022-09-23T05:19:28.324Z,5.08
2022-09-23T05:21:58.424Z,4.37
2022-09-23T05:24:29.172Z,4.50
2022-09-23T05:26:59.178Z,6.30
2022-09-23T05:29:30.382Z,4.75
2022-09-23T05:32:00.657Z,4.58
2022-09-23T05:34:30.829Z,6.00
2022-09-23T05:37:01.208Z,7.35
2022-09-23T05:39:31.341Z,7.62
2022-09-23T05:42:02.754Z,5.35
2022-09-23T05:44:34.009Z,6.35
2022-09-23T05:47:04.103Z,5.45
2022-09-23T05:49:58.157Z,5.22
2022-09-23T05:52:05.908Z,4.75
2022-09-23T05:54:37.534Z,4.75
2022-09-23T05:57:07.614Z,4.58
2022-09-23T05:59:40.258Z,5.25
2022-09-23T06:02:11.224Z,5.25
2022-09-23T06:04:41.320Z,6.05
2022-09-23T06:07:12.257Z,4.83
2022-09-23T06:09:43.437Z,4.40
2022-09-23T06:12:14.811Z,5.50
2022-09-23T06:14:44.971Z,5.33
2022-09-23T06:17:15.098Z,5.53
2022-09-23T06:19:45.274Z,4.80
2022-09-23T06:22:16.791Z,4.67
2022-09-23T06:24:46.901Z,4.65
2022-09-23T06:27:16.985Z,7.83
2022-09-23T06:29:47.252Z,8.25
2022-09-23T06:32:17.462Z,7.40
2022-09-23T06:34:51.918Z,6.55
2022-09-23T06:37:20.700Z,6.80
2022-09-23T06:39:50.521Z,5.37
2022-09-23T06:42:20.898Z,5.33
2022-09-23T06:44:53.580Z,6.42
2022-09-23T06:48:48.049Z,5.28
2022-09-23T06:50:07.231Z,4.78
2022-09-23T06:52:37.477Z,5.12
2022-09-23T06:55:10.853Z,5.12
2022-09-23T06:57:41.041Z,3.85
2022-09-23T07:00:11.456Z,3.22
2022-09-23T07:02:47.959Z,3.70
2022-09-23T07:05:18.701Z,3.22
2022-09-23T07:07:48.822Z,2.17
2022-09-23T07:10:19.360Z,3.08
2022-09-23T07:12:49.462Z,4.58
2022-09-23T07:15:19.576Z,2.55
2022-09-23T07:17:50.624Z,2.02
2022-09-23T07:20:20.825Z,3.10
2022-09-23T07:22:53.361Z,1.95
2022-09-23T07:25:24.268Z,3.00
2022-09-23T07:27:54.396Z,3.27
2022-09-23T07:30:25.637Z,3.52
2022-09-23T07:32:55.817Z,4.15
2022-09-23T07:35:27.299Z,2.80
2022-09-23T07:37:57.533Z,3.42
2022-09-23T07:40:27.786Z,3.47
2022-09-23T07:42:58.006Z,2.67
2022-09-23T07:45:28.917Z,3.70
2022-09-23T07:47:59.077Z,3.00
2022-09-23T07:50:30.242Z,2.72
2022-09-23T07:53:00.403Z,1.87
2022-09-23T07:55:30.755Z,2.12
2022-09-23T07:58:00.875Z,2.35
2022-09-23T08:00:31.182Z,2.65
2022-09-23T08:03:01.434Z,3.65
2022-09-23T08:05:33.253Z,2.65
2022-09-23T08:08:03.598Z,4.12
2022-09-23T08:10:33.771Z,2.02
2022-09-23T08:13:04.741Z,1.77
2022-09-23T08:15:35.399Z,2.87
2022-09-23T08:18:06.023Z,2.60
2022-09-23T08:20:37.484Z,2.87
2022-09-23T08:23:07.679Z,2.37
2022-09-23T08:25:38.530Z,3.00
2022-09-23T08:28:09.895Z,4.42
2022-09-23T08:30:44.251Z,4.53
2022-09-23T08:33:15.395Z,3.42
2022-09-23T08:35:46.232Z,4.33
2022-09-23T08:38:16.280Z,3.58
2022-09-23T08:40:48.306Z,3.95
2022-09-23T08:43:20.516Z,4.53
2022-09-23T08:45:52.303Z,7.28
2022-09-23T08:48:23.725Z,5.12
2022-09-23T08:50:55.072Z,6.37
2022-09-23T08:53:26.412Z,2.72
2022-09-23T08:55:58.523Z,4.25
2022-09-23T08:58:29.913Z,5.83
2022-09-23T09:01:01.476Z,5.03
2022-09-23T09:03:33.076Z,5.35
2022-09-23T09:06:03.342Z,3.33
2022-09-23T09:08:34.821Z,3.30
2022-09-23T09:11:06.186Z,4.62
2022-09-23T09:13:39.943Z,4.25
2022-09-23T09:16:12.194Z,4.55
2022-09-23T09:18:44.488Z,4.90
2022-09-23T09:21:15.670Z,4.92
2022-09-23T09:23:47.284Z,3.92
2022-09-23T09:26:18.665Z,4.33
2022-09-23T09:28:51.446Z,4.75
2022-09-23T09:31:23.472Z,4.42
2022-09-23T09:33:56.229Z,5.45
2022-09-23T09:36:26.025Z,6.17
2022-09-23T09:38:57.477Z,4.65
2022-09-23T09:41:30.485Z,4.47
2022-09-23T09:44:02.045Z,8.23
2022-09-23T09:46:34.926Z,6.05
2022-09-23T09:49:07.084Z,4.87
2022-09-23T09:51:38.381Z,4.85
2022-09-23T09:54:10.419Z,4.55
2022-09-23T09:56:41.196Z,4.55
2022-09-23T09:59:12.698Z,2.90
2022-09-23T10:01:42.959Z,3.27
2022-09-23T10:04:14.562Z,2.00
2022-09-23T10:06:44.614Z,2.77
2022-09-23T10:09:16.071Z,1.40
2022-09-23T10:11:48.318Z,1.87
2022-09-23T10:14:20.125Z,4.03
2022-09-23T10:16:51.421Z,2.02
2022-09-23T10:19:22.739Z,2.55
2022-09-23T10:21:54.305Z,2.10
2022-09-23T10:24:26.279Z,3.42
2022-09-23T10:26:57.678Z,1.75
2022-09-23T10:29:28.989Z,2.47
2022-09-23T10:32:00.310Z,3.12
2022-09-23T10:34:31.133Z,5.90
2022-09-23T10:37:02.619Z,2.15
2022-09-23T10:39:34.171Z,5.37
2022-09-23T10:42:06.956Z,3.60
2022-09-23T10:44:39.846Z,5.53
2022-09-23T10:47:11.401Z,2.40
2022-09-23T10:49:44.287Z,3.50
2022-09-23T10:52:15.305Z,4.62
2022-09-23T10:54:46.776Z,3.70
2022-09-23T10:57:19.559Z,2.60
2022-09-23T10:59:50.882Z,3.15
2022-09-23T11:02:20.722Z,3.45
2022-09-23T11:04:53.412Z,7.90
2022-09-23T11:07:24.245Z,2.62
2022-09-23T11:09:55.660Z,5.25
2022-09-23T11:12:26.940Z,3.37
2022-09-23T11:14:58.337Z,4.78
2022-09-23T11:17:29.714Z,9.15
2022-09-23T11:20:01.610Z,6.50
2022-09-23T11:22:34.390Z,4.37
2022-09-23T11:25:06.269Z,5.22
2022-09-23T11:27:41.958Z,7.70
2022-09-23T11:30:11.956Z,6.72
2022-09-23T11:32:43.268Z,3.52
2022-09-23T11:35:14.776Z,4.70
2022-09-23T11:37:46.042Z,5.25
2022-09-23T11:40:17.420Z,5.40
2022-09-23T11:42:50.143Z,7.75
2022-09-23T11:45:23.547Z,4.62
2022-09-23T11:47:54.230Z,2.98
2022-09-23T11:50:26.919Z,7.35
2022-09-23T11:52:59.540Z,5.28
2022-09-23T11:55:32.160Z,3.17
2022-09-23T11:58:13.240Z,4.65
2022-09-23T12:03:42.064Z,2.83
2022-09-23T12:06:03.781Z,3.22
2022-09-23T12:08:35.131Z,3.02
2022-09-23T12:11:07.871Z,7.08
2022-09-23T12:13:42.260Z,3.80
2022-09-23T12:16:14.636Z,5.65
2022-09-23T12:18:46.266Z,8.10
2022-09-23T12:21:33.067Z,4.42
2022-09-23T12:23:50.623Z,5.10
2022-09-23T12:26:21.951Z,8.10
2022-09-23T12:28:54.067Z,4.80
2022-09-23T12:31:41.063Z,8.13
2022-09-23T12:34:04.855Z,4.70
2022-09-23T12:36:36.608Z,6.25
2022-09-23T12:39:08.182Z,5.92
2022-09-23T12:41:39.572Z,5.62
2022-09-23T12:44:12.287Z,10.35
2022-09-23T12:46:46.671Z,5.85
2022-09-23T12:49:18.228Z,5.40
2022-09-23T12:51:49.585Z,9.03
2022-09-23T12:54:20.923Z,8.50
2022-09-23T12:56:54.741Z,6.87
2022-09-23T12:59:26.502Z,7.47
2022-09-23T13:01:57.449Z,5.75
2022-09-23T13:04:33.296Z,7.20
2022-09-23T13:07:04.934Z,6.33
2022-09-23T13:09:40.296Z,5.33
2022-09-23T13:12:10.808Z,9.78
2022-09-23T13:14:43.473Z,7.58
2022-09-23T13:17:16.486Z,6.05
2022-09-23T13:19:48.289Z,6.00
2022-09-23T13:22:26.488Z,6.47
2022-09-23T13:24:56.823Z,8.55
2022-09-23T13:27:30.470Z,6.22
2022-09-23T13:30:04.916Z,5.65
2022-09-23T13:32:36.751Z,4.20
2022-09-23T13:35:12.535Z,7.85
2022-09-23T13:37:42.075Z,8.83
2022-09-23T13:40:13.793Z,7.08
2022-09-23T13:42:44.863Z,9.15
2022-09-23T13:45:16.666Z,8.73
2022-09-23T13:47:53.776Z,8.25
2022-09-23T13:50:21.022Z,7.58
2022-09-23T13:52:52.437Z,8.03
2022-09-23T13:55:23.906Z,6.72
2022-09-23T13:57:55.358Z,8.60
2022-09-23T14:00:26.547Z,5.67
2022-09-23T14:02:56.946Z,8.28
2022-09-23T14:08:50.454Z,6.25
2022-09-23T14:10:56.944Z,7.03
2022-09-23T14:13:27.725Z,6.37
2022-09-23T14:16:00.284Z,4.92
2022-09-23T14:18:31.759Z,7.58
2022-09-23T14:21:03.513Z,6.67
2022-09-23T14:23:36.312Z,8.85
2022-09-23T14:26:06.494Z,5.78
2022-09-23T14:28:36.749Z,8.88
2022-09-23T14:31:07.204Z,5.45
2022-09-23T14:33:38.665Z,7.03
2022-09-23T14:36:11.349Z,4.30
2022-09-23T14:38:42.859Z,6.05
2022-09-23T14:41:15.648Z,6.10
2022-09-23T14:43:47.474Z,7.20
2022-09-23T14:46:20.856Z,7.37
2022-09-23T14:48:51.747Z,7.95
2022-09-23T14:51:22.468Z,7.42
2022-09-23T14:53:52.723Z,8.38
2022-09-23T14:56:25.204Z,7.28
2022-09-23T14:58:56.640Z,7.47
2022-09-23T15:01:28.839Z,6.58
2022-09-23T15:04:00.099Z,5.87
2022-09-23T15:06:30.301Z,7.92
2022-09-23T15:09:01.830Z,8.15
2022-09-23T15:11:32.849Z,5.78
2022-09-23T15:14:14.212Z,5.37
2022-09-23T15:16:34.820Z,7.05
2022-09-23T15:19:07.760Z,6.25
2022-09-23T15:21:40.379Z,10.40
2022-09-23T15:24:12.113Z,6.08
2022-09-23T15:26:41.964Z,6.45
2022-09-23T15:29:15.855Z,7.92
2022-09-23T15:31:45.157Z,7.35
2022-09-23T15:34:15.301Z,8.28
2022-09-23T15:36:48.077Z,8.35
2022-09-23T15:39:22.606Z,8.88
2022-09-23T15:41:58.932Z,7.20
2022-09-23T15:44:40.566Z,7.47
2022-09-23T15:47:16.234Z,7.95
2022-09-23T15:49:51.296Z,6.00
2022-09-23T15:52:24.034Z,8.10
2022-09-23T15:55:11.538Z,6.50
2022-09-23T15:57:28.874Z,10.80
2022-09-23T16:00:00.466Z,8.63
2022-09-23T16:02:38.219Z,9.03
2022-09-23T16:05:12.237Z,5.60
2022-09-23T16:07:42.560Z,10.00
2022-09-23T16:10:12.889Z,11.80
2022-09-23T16:12:47.625Z,9.18
2022-09-23T16:15:20.395Z,11.03
2022-09-23T16:17:52.338Z,7.22
2022-09-23T16:20:22.786Z,11.22
2022-09-23T16:22:57.757Z,12.53
2022-09-23T16:25:31.588Z,11.73
2022-09-23T16:28:01.957Z,11.75
2022-09-23T16:30:40.779Z,14.73
2022-09-23T16:33:12.103Z,10.23
2022-09-23T16:35:43.484Z,10.90
2022-09-23T16:38:14.928Z,10.75
2022-09-23T16:40:59.126Z,10.65
2022-09-23T16:43:31.867Z,12.85
2022-09-23T16:46:02.202Z,8.08
2022-09-23T16:48:52.969Z,9.35
2022-09-23T16:51:30.407Z,7.22
2022-09-23T16:54:04.566Z,9.08
2022-09-23T16:56:34.813Z,10.48
2022-09-23T16:59:59.412Z,11.88
2022-09-23T17:01:45.816Z,6.60
2022-09-23T17:04:17.137Z,8.10
2022-09-23T17:06:47.409Z,10.10
2022-09-23T17:09:17.396Z,8.68
2022-09-23T17:11:49.307Z,11.08
2022-09-23T17:14:19.406Z,10.65
2022-09-23T17:16:49.582Z,8.48
2022-09-23T17:19:19.628Z,10.50
2022-09-23T17:21:49.653Z,9.68
2022-09-23T17:24:22.654Z,7.47
2022-09-23T17:26:53.967Z,9.95
2022-09-23T17:29:23.975Z,8.20
2022-09-23T17:31:54.028Z,8.73
2022-09-23T17:34:25.151Z,8.05
2022-09-23T17:36:55.371Z,14.63
2022-09-23T17:39:25.693Z,10.10
2022-09-23T17:41:59.192Z,9.83
2022-09-23T17:44:29.312Z,9.00
2022-09-23T17:46:59.920Z,9.50
2022-09-23T17:49:31.709Z,12.93
2022-09-23T17:52:03.158Z,9.53
2022-09-23T17:54:33.764Z,9.70
2022-09-23T17:57:04.040Z,9.58
2022-09-23T17:59:34.333Z,10.75
2022-09-23T18:02:04.619Z,8.60
2022-09-23T18:04:34.730Z,9.90
2022-09-23T18:07:04.692Z,10.55
2022-09-23T18:09:34.860Z,10.40
2022-09-23T18:12:04.992Z,10.58
2022-09-23T18:14:34.979Z,9.10
2022-09-23T18:17:05.179Z,9.38
2022-09-23T18:19:35.380Z,8.20
2022-09-23T18:22:05.723Z,12.65
2022-09-23T18:24:37.330Z,9.23
2022-09-23T18:27:11.626Z,9.33
2022-09-23T18:29:41.824Z,8.75
2022-09-23T18:32:14.226Z,7.42
2022-09-23T18:34:43.809Z,7.28
2022-09-23T18:37:16.220Z,8.18
2022-09-23T18:39:46.604Z,7.78
2022-09-23T18:42:16.921Z,6.45
2022-09-23T18:44:49.534Z,9.83
2022-09-23T18:47:21.151Z,8.13
2022-09-23T18:49:52.711Z,9.28
2022-09-23T18:52:22.997Z,7.65
2022-09-23T18:54:55.044Z,7.60
2022-09-23T18:57:25.254Z,8.10
2022-09-23T18:59:56.668Z,9.78
2022-09-23T19:02:26.799Z,9.23
2022-09-23T19:04:57.813Z,8.18
2022-09-23T19:07:28.048Z,11.15
2022-09-23T19:10:02.040Z,5.30
2022-09-23T19:12:30.907Z,8.23
2022-09-23T19:15:00.951Z,9.28
2022-09-23T19:17:31.419Z,9.48
2022-09-23T19:20:01.627Z,6.92
2022-09-23T19:22:33.018Z,5.70
2022-09-23T19:25:03.034Z,5.75
2022-09-23T19:27:33.204Z,6.92
2022-09-23T19:30:03.330Z,6.47
2022-09-23T19:32:34.838Z,7.70
2022-09-23T19:35:04.963Z,6.20
2022-09-23T19:37:35.016Z,10.60
2022-09-23T19:40:05.088Z,5.37
2022-09-23T19:42:36.626Z,7.10
2022-09-23T19:45:07.047Z,5.92
2022-09-23T19:47:38.588Z,7.55
2022-09-23T19:50:09.021Z,8.68
2022-09-23T19:52:40.549Z,5.35
2022-09-23T19:55:10.914Z,6.72
2022-09-23T19:57:41.250Z,7.47
2022-09-23T20:00:11.624Z,6.58
2022-09-23T20:02:41.722Z,5.03
2022-09-23T20:05:12.213Z,5.72
2022-09-23T20:07:43.420Z,6.08
2022-09-23T20:10:13.859Z,6.83
2022-09-23T20:12:45.134Z,6.67
2022-09-23T20:15:15.374Z,5.03
2022-09-23T20:17:45.654Z,4.75
2022-09-23T20:20:16.991Z,5.95
2022-09-23T20:22:47.913Z,5.50
2022-09-23T20:25:18.087Z,5.47
2022-09-23T20:27:50.571Z,5.00
2022-09-23T20:30:20.734Z,7.30
2022-09-23T20:32:51.206Z,5.08
2022-09-23T20:35:21.402Z,5.50
2022-09-23T20:37:52.093Z,7.05
2022-09-23T20:40:23.744Z,5.97
2022-09-23T20:42:54.115Z,6.78
2022-09-23T20:45:24.355Z,5.30
2022-09-23T20:47:54.660Z,6.45
2022-09-23T20:50:24.877Z,6.22
2022-09-23T20:52:57.886Z,7.30
2022-09-23T20:55:32.796Z,5.12
2022-09-23T20:58:09.310Z,4.58
2022-09-23T21:00:41.155Z,8.45
2022-09-23T21:03:15.241Z,7.25
2022-09-23T21:05:47.743Z,13.35
2022-09-23T21:08:18.288Z,4.35
2022-09-23T21:10:50.576Z,6.87
2022-09-23T21:13:20.836Z,7.03
2022-09-23T21:15:51.326Z,6.87
2022-09-23T21:18:22.656Z,5.50
2022-09-23T21:20:54.037Z,5.62
2022-09-23T21:23:25.335Z,6.62
2022-09-23T21:25:57.217Z,6.12
2022-09-23T21:28:27.241Z,5.62
2022-09-23T21:30:58.631Z,9.58
2022-09-23T21:33:29.103Z,6.40
2022-09-23T21:36:01.672Z,8.68
2022-09-23T21:38:33.058Z,6.75
2022-09-23T21:41:03.969Z,6.15
2022-09-23T21:43:35.083Z,9.48
2022-09-23T21:46:06.360Z,6.75
2022-09-23T21:48:37.688Z,9.23
2022-09-23T21:51:09.355Z,10.35
2022-09-23T21:53:40.728Z,14.75
2022-09-23T21:56:14.038Z,14.18
2022-09-23T21:58:44.464Z,20.80
2022-09-23T22:01:16.425Z,20.30
2022-09-23T22:03:47.335Z,15.93
2022-09-23T22:06:19.979Z,15.50
2022-09-23T22:08:51.334Z,15.40
2022-09-23T22:11:24.331Z,13.08
2022-09-23T22:13:54.954Z,10.40
2022-09-23T22:16:25.523Z,11.93
2022-09-23T22:18:56.422Z,9.70
2022-09-23T22:21:27.968Z,8.25
2022-09-23T22:23:59.010Z,8.15
2022-09-23T22:26:30.467Z,7.85
2022-09-23T22:29:01.956Z,11.95
2022-09-23T22:31:33.559Z,11.18
2022-09-23T22:34:04.006Z,10.65
2022-09-23T22:36:34.274Z,10.43
2022-09-23T22:39:05.664Z,8.78
2022-09-23T22:41:36.726Z,11.88
2022-09-23T22:44:07.350Z,9.38
2022-09-23T22:46:37.433Z,9.90
2022-09-23T22:49:08.608Z,11.05
2022-09-23T22:51:39.899Z,9.58
2022-09-23T22:54:10.739Z,13.38
2022-09-23T22:56:40.891Z,12.75
2022-09-23T22:59:12.567Z,13.22
2022-09-23T23:01:43.801Z,12.55
2022-09-23T23:04:15.065Z,10.75
2022-09-23T23:06:45.166Z,10.03
2022-09-23T23:09:16.444Z,12.47
2022-09-23T23:11:48.214Z,12.03
2022-09-23T23:14:19.894Z,12.50
2022-09-23T23:16:50.485Z,14.87
2022-09-23T23:19:20.574Z,12.15
2022-09-23T23:21:51.751Z,11.95
2022-09-23T23:24:22.962Z,13.32
2022-09-23T23:26:53.716Z,11.10
2022-09-23T23:29:24.541Z,10.48
2022-09-23T23:31:54.795Z,17.77
2022-09-23T23:37:21.193Z,13.55
2022-09-23T23:39:51.552Z,14.45
2022-09-23T23:42:22.184Z,17.00
2022-09-23T23:44:52.187Z,15.70
2022-09-23T23:47:22.944Z,20.10
2022-09-23T23:49:52.953Z,14.75
2022-09-23T23:52:23.206Z,13.40
2022-09-23T23:54:53.809Z,14.90
2022-09-23T23:57:23.929Z,10.82
2022-09-23T23:59:53.924Z,9.15
